createdAt,value
2016-10-17T00:01:03.312Z,12.41
2016-10-17T00:02:13.604Z,12.43
2016-10-17T00:03:23.907Z,12.36
2016-10-17T00:04:33.892Z,12.31
2016-10-17T00:05:43.562Z,12.34
2016-10-17T00:06:53.546Z,12.36
2016-10-17T00:08:03.838Z,12.33
2016-10-17T00:09:14.127Z,12.29
2016-10-17T00:10:24.103Z,12.34
2016-10-17T00:11:34.396Z,12.16
2016-10-17T00:12:44.671Z,12.22
2016-10-17T00:13:54.963Z,12.2
2016-10-17T00:15:05.249Z,12.15
2016-10-17T00:16:15.527Z,12.08
2016-10-17T00:17:25.510Z,12.05
2016-10-17T00:18:35.791Z,12.03
2016-10-17T00:19:46.074Z,11.95
2016-10-17T00:20:56.344Z,11.91
2016-10-17T00:22:06.312Z,11.85
2016-10-17T00:23:16.616Z,11.89
2016-10-17T00:24:26.912Z,11.79
2016-10-17T00:25:37.198Z,11.85
2016-10-17T00:26:46.858Z,11.81
2016-10-17T00:27:56.858Z,11.71
2016-10-17T00:29:06.824Z,11.71
2016-10-17T00:30:16.795Z,11.81
2016-10-17T00:31:27.112Z,11.75
2016-10-17T00:32:37.084Z,11.73
2016-10-17T00:33:46.750Z,11.67
2016-10-17T00:34:57.042Z,11.75
2016-10-17T00:36:07.329Z,11.78
2016-10-17T00:37:17.626Z,11.67
2016-10-17T00:38:27.902Z,11.82
2016-10-17T00:39:38.195Z,11.73
2016-10-17T00:40:48.195Z,11.71
2016-10-17T00:41:58.497Z,11.71
2016-10-17T00:43:08.488Z,11.68
2016-10-17T00:44:18.481Z,11.67
2016-10-17T00:45:28.172Z,11.66
2016-10-17T00:46:38.170Z,11.64
2016-10-17T00:47:48.181Z,11.61
2016-10-17T00:48:58.454Z,11.57
2016-10-17T00:50:08.429Z,11.56
2016-10-17T00:51:18.401Z,11.56
2016-10-17T00:52:28.683Z,11.57
2016-10-17T00:53:38.963Z,11.51
2016-10-17T00:54:48.941Z,11.49
2016-10-17T00:55:59.236Z,11.46
2016-10-17T00:57:09.217Z,11.48
2016-10-17T00:58:19.496Z,11.38
2016-10-17T00:59:29.478Z,11.34
2016-10-17T01:00:39.765Z,11.38
2016-10-17T01:01:49.751Z,11.34
2016-10-17T01:02:59.728Z,11.38
2016-10-17T01:04:10.015Z,11.34
2016-10-17T01:05:20.301Z,11.3
2016-10-17T01:06:30.338Z,11.3
2016-10-17T01:07:40.311Z,11.24
2016-10-17T01:08:50.603Z,11.23
2016-10-17T01:10:00.881Z,11.2
2016-10-17T01:11:10.883Z,11.21
2016-10-17T01:12:20.878Z,11.15
2016-10-17T01:13:30.850Z,11.15
2016-10-17T01:14:40.817Z,11.28
2016-10-17T01:15:50.813Z,11.18
2016-10-17T01:17:01.094Z,11.26
2016-10-17T01:18:11.067Z,11.16
2016-10-17T01:19:21.344Z,11.2
2016-10-17T01:20:31.630Z,11.09
2016-10-17T01:21:41.932Z,11.06
2016-10-17T01:22:51.594Z,11.15
2016-10-17T01:24:01.889Z,11.05
2016-10-17T01:25:11.877Z,11.12
2016-10-17T01:26:21.544Z,11.02
2016-10-17T01:27:31.540Z,11.02
2016-10-17T01:28:41.507Z,10.97
2016-10-17T01:29:51.832Z,10.98
2016-10-17T01:31:02.102Z,10.92
2016-10-17T01:32:12.082Z,10.87
2016-10-17T01:33:22.363Z,10.91
2016-10-17T01:34:32.345Z,10.91
2016-10-17T01:35:42.640Z,10.85
2016-10-17T01:36:52.936Z,10.77
2016-10-17T01:38:03.225Z,10.88
2016-10-17T01:39:13.520Z,10.85
2016-10-17T01:40:23.813Z,10.83
2016-10-17T01:41:33.483Z,10.76
2016-10-17T01:42:43.772Z,10.85
2016-10-17T01:43:54.054Z,10.77
2016-10-17T01:45:04.333Z,10.84
2016-10-17T01:46:14.623Z,10.83
2016-10-17T01:47:24.615Z,10.79
2016-10-17T01:48:34.897Z,10.79
2016-10-17T01:49:45.193Z,10.61
2016-10-17T01:50:55.165Z,10.73
2016-10-17T01:52:05.456Z,10.65
2016-10-17T01:53:15.757Z,10.79
2016-10-17T01:54:26.061Z,10.77
2016-10-17T01:55:36.347Z,10.72
2016-10-17T01:56:46.322Z,10.76
2016-10-17T01:57:56.609Z,10.72
2016-10-17T01:59:06.596Z,10.7
2016-10-17T02:00:16.893Z,10.73
2016-10-17T02:01:27.194Z,10.59
2016-10-17T02:02:37.171Z,10.66
2016-10-17T02:03:47.144Z,10.67
2016-10-17T02:04:57.435Z,10.72
2016-10-17T02:06:07.750Z,10.67
2016-10-17T02:07:17.726Z,10.7
2016-10-17T02:08:27.720Z,10.66
2016-10-17T02:09:37.387Z,10.65
2016-10-17T02:10:47.675Z,10.61
2016-10-17T02:11:57.658Z,10.66
2016-10-17T02:13:07.953Z,10.66
2016-10-17T02:14:18.259Z,10.7
2016-10-17T02:15:28.551Z,10.69
2016-10-17T02:16:38.838Z,10.66
2016-10-17T02:17:48.837Z,10.69
2016-10-17T02:18:59.131Z,10.66
2016-10-17T02:20:09.436Z,10.66
2016-10-17T02:21:19.730Z,10.63
2016-10-17T02:22:30.240Z,10.59
2016-10-17T02:23:39.909Z,10.58
2016-10-17T02:24:50.230Z,10.52
2016-10-17T02:26:00.208Z,10.55
2016-10-17T02:27:10.490Z,10.59
2016-10-17T02:28:20.778Z,10.63
2016-10-17T02:29:30.748Z,10.65
2016-10-17T02:30:41.033Z,10.63
2016-10-17T02:31:51.303Z,10.59
2016-10-17T02:33:01.587Z,10.51
2016-10-17T02:34:11.262Z,10.52
2016-10-17T02:35:21.231Z,10.52
2016-10-17T02:36:30.919Z,10.42
2016-10-17T02:37:40.936Z,10.51
2016-10-17T02:38:51.219Z,10.49
2016-10-17T02:40:01.524Z,10.47
2016-10-17T02:41:11.811Z,10.47
2016-10-17T02:42:22.112Z,10.39
2016-10-17T02:43:32.083Z,10.47
2016-10-17T02:44:42.381Z,10.44
2016-10-17T02:45:52.682Z,10.39
2016-10-17T02:47:02.949Z,10.44
2016-10-17T02:48:12.941Z,10.36
2016-10-17T02:49:23.230Z,10.36
2016-10-17T02:50:33.205Z,10.44
2016-10-17T02:51:43.182Z,10.36
2016-10-17T02:52:53.467Z,10.35
2016-10-17T02:54:03.759Z,10.32
2016-10-17T02:55:13.737Z,10.29
2016-10-17T02:56:24.029Z,10.35
2016-10-17T02:57:34.315Z,10.39
2016-10-17T02:58:44.296Z,10.47
2016-10-17T02:59:54.268Z,10.38
2016-10-17T03:01:04.250Z,10.36
2016-10-17T03:33:09.405Z,7.39
2016-10-17T03:34:19.367Z,7.23
2016-10-17T03:35:29.327Z,7.34
2016-10-17T03:36:39.605Z,7.47
2016-10-17T03:37:49.882Z,7.51
2016-10-17T03:38:59.871Z,7.68
2016-10-17T03:40:10.165Z,7.86
2016-10-17T03:41:20.442Z,8.03
2016-10-17T03:42:30.115Z,8.16
2016-10-17T03:43:40.087Z,8.43
2016-10-17T03:44:50.063Z,8.47
2016-10-17T03:46:00.045Z,8.72
2016-10-17T03:47:10.049Z,8.79
2016-10-17T03:48:20.031Z,8.98
2016-10-17T03:49:30.325Z,9.2
2016-10-17T03:50:40.317Z,9.39
2016-10-17T03:51:50.290Z,9.48
2016-10-17T03:53:00.595Z,9.52
2016-10-17T03:54:10.882Z,9.72
2016-10-17T03:55:21.185Z,9.71
2016-10-17T03:56:31.175Z,9.81
2016-10-17T03:57:41.145Z,9.9
2016-10-17T03:58:51.120Z,9.96
2016-10-17T04:00:01.108Z,10.14
2016-10-17T04:01:11.400Z,10.14
2016-10-17T04:02:21.398Z,10.28
2016-10-17T04:03:31.702Z,10.35
2016-10-17T04:04:41.690Z,10.41
2016-10-17T04:05:51.991Z,10.58
2016-10-17T04:07:01.992Z,10.66
2016-10-17T04:08:12.268Z,10.77
2016-10-17T04:09:22.545Z,10.83
2016-10-17T04:10:32.826Z,10.87
2016-10-17T04:11:42.804Z,10.84
2016-10-17T04:12:52.790Z,10.9
2016-10-17T04:14:02.774Z,11
2016-10-17T04:15:12.753Z,11.05
2016-10-17T04:16:23.025Z,11.08
2016-10-17T04:17:33.313Z,11.1
2016-10-17T04:18:43.599Z,11.21
2016-10-17T04:19:53.889Z,11.24
2016-10-17T04:21:03.866Z,11.18
2016-10-17T04:22:13.551Z,11.21
2016-10-17T04:23:23.831Z,11.16
2016-10-17T04:24:34.142Z,11.24
2016-10-17T04:25:44.115Z,11.23
2016-10-17T04:26:54.097Z,11.3
2016-10-17T04:28:04.092Z,11.28
2016-10-17T04:29:14.076Z,11.18
2016-10-17T04:30:24.377Z,11.16
2016-10-17T04:31:34.667Z,11.24
2016-10-17T04:32:44.959Z,11.23
2016-10-17T04:33:55.249Z,11.33
2016-10-17T04:35:05.232Z,11.23
2016-10-17T04:36:14.900Z,11.35
2016-10-17T04:37:25.195Z,11.38
2016-10-17T04:38:35.478Z,11.41
2016-10-17T04:39:45.774Z,11.43
2016-10-17T04:40:55.770Z,11.34
2016-10-17T04:42:06.058Z,11.46
2016-10-17T04:43:16.358Z,11.45
2016-10-17T04:44:26.350Z,11.46
2016-10-17T04:45:36.637Z,11.46
2016-10-17T04:46:46.619Z,11.49
2016-10-17T04:47:56.316Z,11.45
2016-10-17T04:49:06.592Z,11.43
2016-10-17T04:50:16.564Z,11.34
2016-10-17T04:51:26.246Z,11.42
2016-10-17T04:52:36.221Z,11.42
2016-10-17T04:53:46.498Z,11.45
2016-10-17T04:54:56.793Z,11.48
2016-10-17T04:56:06.763Z,11.45
2016-10-17T04:57:17.043Z,11.46
2016-10-17T04:58:27.355Z,11.45
2016-10-17T04:59:37.641Z,11.52
2016-10-17T05:00:47.928Z,11.56
2016-10-17T05:01:58.220Z,11.51
2016-10-17T05:03:08.522Z,11.52
2016-10-17T05:04:18.513Z,11.51
2016-10-17T05:05:28.496Z,11.53
2016-10-17T05:06:38.782Z,11.56
2016-10-17T05:07:48.447Z,11.49
2016-10-17T05:08:58.740Z,11.48
2016-10-17T05:10:08.712Z,11.45
2016-10-17T05:11:18.704Z,11.46
2016-10-17T05:12:28.665Z,11.42
2016-10-17T05:13:38.961Z,11.45
2016-10-17T05:14:49.238Z,11.52
2016-10-17T05:15:58.595Z,11.51
2016-10-17T05:17:08.891Z,11.51
2016-10-17T05:18:19.180Z,11.59
2016-10-17T05:19:29.147Z,11.51
2016-10-17T05:20:39.438Z,11.53
2016-10-17T05:21:49.719Z,11.56
2016-10-17T05:23:00.030Z,11.57
2016-10-17T05:24:10.002Z,11.7
2016-10-17T05:25:19.673Z,11.67
2016-10-17T05:26:29.974Z,11.67
2016-10-17T05:27:40.262Z,11.6
2016-10-17T05:28:50.239Z,11.6
2016-10-17T05:29:59.946Z,11.61
2016-10-17T05:31:09.926Z,11.66
2016-10-17T05:32:19.905Z,11.67
2016-10-17T05:33:29.910Z,11.67
2016-10-17T05:34:40.206Z,11.67
2016-10-17T05:35:50.208Z,11.68
2016-10-17T05:37:00.494Z,11.67
2016-10-17T05:38:10.466Z,11.66
2016-10-17T05:39:20.442Z,11.78
2016-10-17T05:40:30.450Z,11.66
2016-10-17T05:41:40.742Z,11.68
2016-10-17T05:42:50.752Z,11.78
2016-10-17T05:44:01.036Z,11.73
2016-10-17T05:45:11.034Z,11.84
2016-10-17T05:46:21.047Z,11.73
2016-10-17T05:47:31.329Z,11.76
2016-10-17T05:48:41.010Z,11.75
2016-10-17T05:49:51.287Z,11.86
2016-10-17T05:51:01.269Z,11.86
2016-10-17T05:52:11.557Z,11.94
2016-10-17T05:53:21.221Z,11.89
2016-10-17T05:54:31.509Z,11.98
2016-10-17T05:55:41.174Z,12.01
2016-10-17T05:56:50.860Z,11.94
2016-10-17T05:58:01.154Z,11.91
2016-10-17T05:59:11.126Z,11.94
2016-10-17T06:00:21.410Z,11.89
2016-10-17T06:01:31.392Z,11.84
2016-10-17T06:02:41.691Z,11.89
2016-10-17T06:03:51.082Z,11.85
2016-10-17T06:05:01.371Z,11.91
2016-10-17T06:06:11.671Z,11.94
2016-10-17T06:07:21.966Z,11.95
2016-10-17T06:08:31.642Z,11.91
2016-10-17T06:09:41.608Z,11.89
2016-10-17T06:10:51.912Z,11.95
2016-10-17T06:12:01.901Z,12.01
2016-10-17T06:13:11.883Z,11.89
2016-10-17T06:14:22.181Z,11.97
2016-10-17T06:15:32.154Z,11.94
2016-10-17T06:16:42.444Z,11.97
2016-10-17T06:17:52.409Z,12.03
2016-10-17T06:19:02.416Z,12.03
2016-10-17T06:20:12.403Z,12.04
2016-10-17T06:21:22.690Z,12.04
2016-10-17T06:22:32.666Z,12.19
2016-10-17T06:23:42.987Z,12.16
2016-10-17T06:24:53.257Z,12.2
2016-10-17T06:26:03.545Z,12.2
2016-10-17T06:27:13.213Z,12.38
2016-10-17T06:28:22.883Z,12.29
2016-10-17T06:29:32.856Z,12.37
2016-10-17T06:30:42.842Z,12.36
2016-10-17T06:31:52.534Z,12.38
2016-10-17T06:33:02.838Z,12.34
2016-10-17T06:34:13.142Z,12.34
2016-10-17T06:35:22.809Z,12.33
2016-10-17T06:36:33.091Z,12.4
2016-10-17T06:37:43.373Z,12.43
2016-10-17T06:38:53.364Z,12.4
2016-10-17T06:40:03.026Z,12.36
2016-10-17T06:41:13.303Z,12.43
2016-10-17T06:42:23.280Z,12.41
2016-10-17T06:43:33.579Z,12.43
2016-10-17T06:44:43.248Z,12.38
2016-10-17T06:45:53.540Z,12.37
2016-10-17T06:47:03.835Z,12.41
2016-10-17T06:48:14.116Z,12.44
2016-10-17T06:49:24.103Z,12.47
2016-10-17T06:50:34.416Z,12.44
2016-10-17T06:51:44.718Z,12.55
2016-10-17T06:52:54.698Z,12.55
2016-10-17T06:54:04.986Z,12.52
2016-10-17T06:55:15.287Z,12.53
2016-10-17T06:56:25.574Z,12.53
2016-10-17T06:57:35.570Z,12.53
2016-10-17T06:58:45.928Z,12.55
2016-10-17T06:59:55.919Z,12.53
2016-10-17T07:01:05.905Z,12.41
2016-10-17T07:02:16.193Z,12.47
2016-10-17T07:03:26.466Z,12.36
2016-10-17T07:04:36.445Z,12.4
2016-10-17T07:05:46.737Z,12.38
2016-10-17T07:06:57.021Z,12.44
2016-10-17T07:08:07.007Z,12.37
2016-10-17T07:09:17.298Z,12.43
2016-10-17T07:10:27.382Z,12.51
2016-10-17T07:11:37.719Z,12.53
2016-10-17T07:12:48.027Z,12.51
2016-10-17T07:13:58.331Z,12.56
2016-10-17T07:15:08.021Z,12.58
2016-10-17T07:16:18.010Z,12.59
2016-10-17T07:17:28.296Z,12.61
2016-10-17T07:18:38.639Z,12.65
2016-10-17T07:19:48.609Z,12.62
2016-10-17T07:20:58.271Z,12.61
2016-10-17T07:22:08.257Z,12.58
2016-10-17T07:23:18.553Z,12.56
2016-10-17T07:24:28.839Z,12.59
2016-10-17T07:25:38.842Z,12.56
2016-10-17T07:26:48.816Z,12.62
2016-10-17T07:27:59.101Z,12.61
2016-10-17T07:29:09.077Z,12.7
2016-10-17T07:30:19.065Z,12.78
2016-10-17T07:31:29.370Z,12.8
2016-10-17T07:32:39.672Z,12.88
2016-10-17T07:33:49.979Z,12.91
2016-10-17T07:35:00.265Z,12.81
2016-10-17T07:36:10.547Z,12.89
2016-10-17T07:37:20.839Z,12.94
2016-10-17T07:38:31.127Z,13.01
2016-10-17T07:39:41.423Z,13.03
2016-10-17T07:40:51.714Z,12.98
2016-10-17T07:42:01.995Z,13.02
2016-10-17T07:43:12.316Z,13.09
2016-10-17T07:44:22.624Z,13.03
2016-10-17T07:45:32.296Z,13.03
2016-10-17T07:46:42.587Z,13.07
2016-10-17T07:47:52.876Z,13.1
2016-10-17T07:49:03.166Z,13.06
2016-10-17T07:50:13.458Z,13.06
2016-10-17T07:51:23.791Z,13.07
2016-10-17T07:52:34.090Z,13.1
2016-10-17T07:53:44.389Z,13.09
2016-10-17T07:54:54.435Z,13.1
2016-10-17T07:56:04.738Z,13.09
2016-10-17T07:57:15.033Z,13.09
2016-10-17T07:58:25.355Z,13.07
2016-10-17T08:00:44.388Z,13.16
2016-10-17T08:01:54.677Z,13.14
2016-10-17T08:03:04.650Z,13.17
2016-10-17T08:04:14.938Z,13.13
2016-10-17T08:05:25.218Z,13.29
2016-10-17T08:06:35.507Z,13.24
2016-10-17T08:07:45.783Z,13.25
2016-10-17T08:08:56.079Z,13.27
2016-10-17T08:10:05.752Z,13.28
2016-10-17T08:11:15.724Z,13.31
2016-10-17T08:12:25.700Z,13.25
2016-10-17T08:13:35.985Z,13.36
2016-10-17T08:14:46.267Z,13.31
2016-10-17T08:15:56.547Z,13.36
2016-10-17T08:17:06.217Z,13.35
2016-10-17T08:18:16.204Z,13.36
2016-10-17T08:19:26.504Z,13.35
2016-10-17T08:20:36.783Z,13.37
2016-10-17T08:21:46.764Z,13.36
2016-10-17T08:22:57.057Z,13.32
2016-10-17T08:24:07.331Z,13.31
2016-10-17T08:25:17.300Z,13.32
2016-10-17T08:26:27.591Z,13.47
2016-10-17T08:27:37.573Z,13.51
2016-10-17T08:28:47.855Z,13.54
2016-10-17T08:29:58.137Z,13.62
2016-10-17T08:31:07.860Z,13.63
2016-10-17T08:32:18.180Z,13.63
2016-10-17T08:33:28.448Z,13.54
2016-10-17T08:34:38.743Z,13.63
2016-10-17T08:35:49.030Z,13.62
2016-10-17T08:36:59.313Z,13.62
2016-10-17T08:38:09.333Z,13.63
2016-10-17T08:39:19.615Z,13.69
2016-10-17T08:40:29.923Z,13.7
2016-10-17T08:41:39.899Z,13.72
2016-10-17T08:42:49.882Z,13.69
2016-10-17T08:44:00.184Z,13.76
2016-10-17T08:45:10.469Z,13.75
2016-10-17T08:46:20.764Z,13.72
2016-10-17T08:47:31.047Z,13.81
2016-10-17T08:48:41.334Z,13.91
2016-10-17T08:49:51.621Z,13.86
2016-10-17T08:51:01.898Z,13.94
2016-10-17T08:52:12.171Z,13.93
2016-10-17T08:53:22.406Z,13.97
2016-10-17T08:54:32.702Z,13.95
2016-10-17T08:55:42.998Z,13.94
2016-10-17T08:56:53.311Z,14.02
2016-10-17T08:58:03.298Z,14.06
2016-10-17T08:59:13.598Z,14.08
2016-10-17T09:00:23.565Z,14.19
2016-10-17T09:01:33.852Z,14.27
2016-10-17T09:02:44.151Z,14.21
2016-10-17T09:03:54.487Z,14.3
2016-10-17T09:05:04.795Z,14.38
2016-10-17T09:06:15.092Z,14.41
2016-10-17T09:07:25.465Z,14.3
2016-10-17T09:08:35.447Z,14.38
2016-10-17T09:09:45.435Z,14.3
2016-10-17T09:10:55.716Z,14.41
2016-10-17T09:12:05.687Z,14.39
2016-10-17T09:13:15.984Z,14.33
2016-10-17T09:14:26.280Z,14.34
2016-10-17T09:15:36.571Z,14.27
2016-10-17T09:16:46.249Z,14.27
2016-10-17T09:17:56.535Z,14.36
2016-10-17T09:19:06.816Z,14.36
2016-10-17T09:20:17.124Z,14.34
2016-10-17T09:21:27.116Z,14.38
2016-10-17T09:22:37.433Z,14.36
2016-10-17T09:23:47.429Z,14.42
2016-10-17T09:24:57.744Z,14.46
2016-10-17T09:26:08.034Z,14.61
2016-10-17T09:27:18.301Z,14.67
2016-10-17T09:28:28.283Z,14.63
2016-10-17T09:29:37.643Z,14.67
2016-10-17T09:30:47.945Z,14.63
2016-10-17T09:31:57.921Z,14.69
2016-10-17T09:33:08.223Z,14.63
2016-10-17T09:34:18.516Z,14.7
2016-10-17T09:35:28.486Z,14.63
2016-10-17T09:36:38.773Z,14.63
2016-10-17T09:37:49.069Z,14.66
2016-10-17T09:38:59.362Z,14.64
2016-10-17T09:40:09.348Z,14.7
2016-10-17T09:41:19.637Z,14.71
2016-10-17T09:42:29.982Z,14.74
2016-10-17T09:43:39.959Z,14.82
2016-10-17T09:44:49.941Z,14.74
2016-10-17T09:45:59.908Z,14.7
2016-10-17T09:47:10.190Z,14.79
2016-10-17T09:48:20.168Z,14.77
2016-10-17T09:49:30.148Z,14.77
2016-10-17T09:50:39.504Z,14.85
2016-10-17T09:51:49.791Z,14.86
2016-10-17T09:52:59.762Z,14.86
2016-10-17T09:54:10.041Z,14.89
2016-10-17T09:55:20.361Z,14.9
2016-10-17T09:56:30.030Z,14.87
2016-10-17T09:57:40.015Z,14.87
2016-10-17T09:58:50.291Z,14.9
2016-10-17T10:00:00.273Z,14.87
2016-10-17T10:01:10.267Z,14.97
2016-10-17T10:02:22.324Z,14.87
2016-10-17T10:03:37.857Z,14.93
2016-10-17T10:04:53.190Z,14.86
2016-10-17T10:06:05.642Z,14.75
2016-10-17T10:07:15.641Z,14.89
2016-10-17T10:08:25.705Z,14.87
2016-10-17T10:09:36.250Z,14.94
2016-10-17T10:10:46.266Z,15.07
2016-10-17T10:11:56.620Z,15.02
2016-10-17T10:13:06.038Z,15.02
2016-10-17T10:14:16.390Z,15.07
2016-10-17T10:15:26.742Z,15.02
2016-10-17T10:16:36.818Z,15.02
2016-10-17T10:17:47.322Z,15.05
2016-10-17T10:18:58.129Z,15.04
2016-10-17T10:20:09.356Z,15.1
2016-10-17T10:21:20.284Z,15.1
2016-10-17T10:22:29.578Z,15.13
2016-10-17T10:23:39.904Z,15.12
2016-10-17T10:24:50.243Z,15.04
2016-10-17T10:26:00.235Z,15.02
2016-10-17T10:27:14.558Z,15.02
2016-10-17T10:28:31.967Z,14.97
2016-10-17T10:29:45.701Z,15.04
2016-10-17T10:30:57.737Z,15.04
2016-10-17T10:32:07.740Z,15.08
2016-10-17T10:33:18.074Z,15.08
2016-10-17T10:34:28.067Z,15.08
2016-10-17T10:35:38.377Z,15.13
2016-10-17T10:36:48.351Z,14.98
2016-10-17T10:37:58.260Z,15
2016-10-17T10:39:08.267Z,15.08
2016-10-17T10:40:18.557Z,14.97
2016-10-17T10:41:28.567Z,15.02
2016-10-17T10:42:38.599Z,15.02
2016-10-17T10:43:48.982Z,15.04
2016-10-17T10:44:58.978Z,15
2016-10-17T10:46:08.663Z,15.01
2016-10-17T10:47:18.641Z,14.89
2016-10-17T10:48:28.614Z,14.86
2016-10-17T10:49:38.303Z,14.89
2016-10-17T10:50:47.991Z,14.95
2016-10-17T10:51:57.978Z,14.9
2016-10-17T10:53:08.282Z,14.9
2016-10-17T10:54:18.587Z,14.89
2016-10-17T10:55:28.915Z,14.9
2016-10-17T10:56:38.895Z,14.95
2016-10-17T10:57:49.194Z,14.86
2016-10-17T10:58:59.493Z,14.89
2016-10-17T11:00:09.819Z,14.86
2016-10-17T11:01:19.477Z,14.7
2016-10-17T11:02:29.805Z,14.82
2016-10-17T11:03:40.102Z,14.82
2016-10-17T11:04:50.402Z,14.77
2016-10-17T11:06:00.395Z,14.69
2016-10-17T11:07:10.714Z,14.74
2016-10-17T11:08:21.076Z,14.71
2016-10-17T11:09:31.367Z,14.71
2016-10-17T11:10:41.672Z,14.69
2016-10-17T11:11:51.977Z,14.67
2016-10-17T11:13:02.262Z,14.75
2016-10-17T11:14:11.938Z,14.79
2016-10-17T11:15:22.256Z,14.79
2016-10-17T11:16:32.560Z,14.79
2016-10-17T11:17:42.596Z,14.79
2016-10-17T11:18:52.890Z,14.79
2016-10-17T11:20:03.196Z,14.8
2016-10-17T11:21:13.500Z,14.71
2016-10-17T11:22:23.205Z,14.69
2016-10-17T11:23:33.186Z,14.59
2016-10-17T11:24:43.478Z,14.59
2016-10-17T11:25:53.206Z,14.57
2016-10-17T11:27:03.200Z,14.46
2016-10-17T11:28:13.203Z,14.51
2016-10-17T11:29:23.215Z,14.48
2016-10-17T11:30:33.196Z,14.49
2016-10-17T11:31:43.510Z,14.46
2016-10-17T11:32:53.493Z,14.51
2016-10-17T11:34:03.795Z,14.57
2016-10-17T11:35:13.827Z,14.57
2016-10-17T11:36:24.148Z,14.6
2016-10-17T11:37:34.166Z,14.64
2016-10-17T11:38:44.388Z,14.7
2016-10-17T11:39:54.684Z,14.67
2016-10-17T11:41:04.727Z,14.67
2016-10-17T11:42:14.727Z,14.82
2016-10-17T11:43:25.021Z,14.77
2016-10-17T11:44:35.011Z,14.87
2016-10-17T11:45:45.312Z,14.86
2016-10-17T11:46:55.599Z,14.86
2016-10-17T11:48:05.628Z,14.9
2016-10-17T11:49:15.607Z,14.93
2016-10-17T11:50:25.577Z,14.87
2016-10-17T11:51:35.571Z,14.98
2016-10-17T11:52:45.870Z,15
2016-10-17T11:53:55.866Z,15.04
2016-10-17T11:55:06.154Z,15.05
2016-10-17T11:56:16.141Z,15.05
2016-10-17T11:57:26.451Z,15.07
2016-10-17T11:58:36.747Z,15.08
2016-10-17T11:59:46.740Z,15.04
2016-10-17T12:00:56.425Z,15.08
2016-10-17T12:02:06.729Z,15.12
2016-10-17T12:03:16.765Z,15.05
2016-10-17T12:04:26.138Z,15
2016-10-17T12:05:36.141Z,14.94
2016-10-17T12:06:46.456Z,15
2016-10-17T12:07:56.428Z,14.9
2016-10-17T12:09:06.729Z,14.94
2016-10-17T12:10:16.726Z,14.83
2016-10-17T12:11:26.713Z,14.9
2016-10-17T12:12:37.011Z,14.9
2016-10-17T12:13:47.303Z,14.89
2016-10-17T12:14:57.612Z,14.97
2016-10-17T12:16:07.949Z,15
2016-10-17T12:17:18.226Z,15.01
2016-10-17T12:18:28.537Z,15.01
2016-10-17T12:19:38.516Z,15.01
2016-10-17T12:20:48.805Z,15.05
2016-10-17T12:21:58.200Z,15.15
2016-10-17T12:23:08.509Z,15.12
2016-10-17T12:24:18.498Z,15.1
2016-10-17T12:25:28.835Z,15.08
2016-10-17T12:26:39.155Z,15.16
2016-10-17T12:27:49.470Z,15.23
2016-10-17T12:28:59.456Z,15.22
2016-10-17T12:30:09.470Z,15.25
2016-10-17T12:31:19.767Z,15.3
2016-10-17T12:32:30.085Z,15.3
2016-10-17T12:33:40.053Z,15.18
2016-10-17T12:34:50.341Z,15.18
2016-10-17T12:36:00.631Z,15.27
2016-10-17T12:37:10.945Z,15.27
2016-10-17T12:38:21.246Z,15.37
2016-10-17T12:39:31.226Z,15.33
2016-10-17T12:40:40.913Z,15.34
2016-10-17T12:41:51.206Z,15.38
2016-10-17T12:43:01.196Z,15.37
2016-10-17T12:44:11.720Z,15.37
2016-10-17T12:45:21.705Z,15.34
2016-10-17T12:46:31.712Z,15.45
2016-10-17T12:47:41.720Z,15.41
2016-10-17T12:48:52.025Z,15.44
2016-10-17T12:50:02.009Z,15.45
2016-10-17T12:51:11.998Z,15.41
2016-10-17T12:52:21.997Z,15.47
2016-10-17T12:53:31.681Z,15.49
2016-10-17T12:54:41.969Z,15.43
2016-10-17T12:55:51.964Z,15.47
2016-10-17T12:57:02.001Z,15.51
2016-10-17T12:58:12.016Z,15.47
2016-10-17T12:59:22.076Z,15.44
2016-10-17T13:00:32.590Z,15.41
2016-10-17T13:01:42.633Z,15.53
2016-10-17T13:02:52.626Z,15.41
2016-10-17T13:04:02.608Z,15.47
2016-10-17T13:05:12.310Z,15.43
2016-10-17T13:06:22.602Z,15.56
2016-10-17T13:07:32.919Z,15.58
2016-10-17T13:08:43.216Z,15.56
2016-10-17T13:09:52.920Z,15.62
2016-10-17T13:11:03.218Z,15.58
2016-10-17T13:12:13.518Z,15.62
2016-10-17T13:13:23.830Z,15.6
2016-10-17T13:14:33.825Z,15.6
2016-10-17T13:15:44.164Z,15.44
2016-10-17T13:16:54.107Z,15.41
2016-10-17T13:18:04.085Z,15.62
2016-10-17T13:19:13.775Z,15.51
2016-10-17T13:20:23.767Z,15.56
2016-10-17T13:21:33.139Z,15.56
2016-10-17T13:22:42.812Z,15.55
2016-10-17T13:23:53.100Z,15.55
2016-10-17T13:25:03.140Z,15.56
2016-10-17T13:26:13.443Z,15.63
2016-10-17T13:27:23.763Z,15.56
2016-10-17T13:28:34.071Z,15.59
2016-10-17T13:29:43.752Z,15.6
2016-10-17T13:30:54.063Z,15.63
2016-10-17T13:32:04.365Z,15.58
2016-10-17T13:33:14.685Z,15.55
2016-10-17T13:34:24.374Z,15.59
2016-10-17T13:35:34.687Z,15.68
2016-10-17T13:36:44.668Z,15.65
2016-10-17T13:37:54.974Z,15.67
2016-10-17T13:39:04.961Z,15.62
2016-10-17T13:40:14.967Z,15.62
2016-10-17T13:41:25.272Z,15.6
2016-10-17T13:42:34.973Z,15.62
2016-10-17T13:43:44.962Z,15.59
2016-10-17T13:44:54.978Z,15.67
2016-10-17T13:46:05.266Z,15.58
2016-10-17T13:47:15.277Z,15.62
2016-10-17T13:48:25.322Z,15.63
2016-10-17T13:49:35.339Z,15.65
2016-10-17T13:50:45.345Z,15.73
2016-10-17T13:51:55.634Z,15.8
2016-10-17T13:53:05.636Z,15.78
2016-10-17T13:54:15.954Z,15.81
2016-10-17T13:55:26.003Z,15.74
2016-10-17T13:56:36.022Z,15.74
2016-10-17T13:57:46.355Z,15.75
2016-10-17T13:58:56.338Z,15.73
2016-10-17T14:00:06.649Z,15.71
2016-10-17T14:01:16.683Z,15.77
2016-10-17T14:02:26.989Z,15.74
2016-10-17T14:03:37.298Z,15.77
2016-10-17T14:04:47.610Z,15.81
2016-10-17T14:05:57.922Z,15.75
2016-10-17T14:07:08.226Z,15.78
2016-10-17T14:08:18.212Z,15.81
2016-10-17T14:09:28.527Z,15.78
2016-10-17T14:10:38.833Z,15.84
2016-10-17T14:11:49.141Z,15.75
2016-10-17T14:12:58.818Z,15.84
2016-10-17T14:14:09.136Z,15.74
2016-10-17T14:15:18.833Z,15.71
2016-10-17T14:16:29.154Z,15.81
2016-10-17T14:17:39.492Z,15.81
2016-10-17T14:18:49.480Z,15.8
2016-10-17T14:19:59.159Z,15.75
2016-10-17T14:21:09.470Z,15.81
2016-10-17T14:22:19.812Z,15.88
2016-10-17T14:23:29.801Z,15.81
2016-10-17T14:24:40.104Z,15.8
2016-10-17T14:25:50.117Z,15.8
2016-10-17T14:27:00.144Z,15.86
2016-10-17T14:28:10.433Z,15.78
2016-10-17T14:29:20.743Z,15.88
2016-10-17T14:30:31.041Z,15.89
2016-10-17T14:31:41.027Z,15.78
2016-10-17T14:32:51.336Z,15.84
2016-10-17T14:34:01.652Z,15.74
2016-10-17T14:35:11.648Z,15.88
2016-10-17T14:36:21.329Z,15.83
2016-10-17T14:37:31.630Z,15.78
2016-10-17T14:38:41.415Z,15.88
2016-10-17T14:39:51.459Z,15.86
2016-10-17T14:41:01.762Z,15.89
2016-10-17T14:42:12.074Z,15.92
2016-10-17T14:43:22.378Z,15.89
2016-10-17T14:44:32.707Z,15.84
2016-10-17T14:45:43.035Z,15.89
2016-10-17T14:46:52.773Z,15.92
2016-10-17T14:48:03.113Z,15.88
2016-10-17T14:49:13.416Z,15.91
2016-10-17T14:50:23.744Z,15.91
2016-10-17T14:51:34.070Z,15.91
2016-10-17T14:52:43.757Z,15.88
2016-10-17T14:53:53.447Z,15.88
2016-10-17T14:55:03.439Z,15.88
2016-10-17T14:56:13.448Z,15.92
2016-10-17T14:57:23.734Z,15.88
2016-10-17T14:58:33.425Z,15.86
2016-10-17T14:59:43.434Z,15.88
2016-10-17T15:00:53.441Z,15.88
2016-10-17T15:02:02.825Z,15.83
2016-10-17T15:03:13.127Z,15.83
2016-10-17T15:04:23.448Z,15.8
2016-10-17T15:05:33.759Z,15.86
2016-10-17T15:06:44.093Z,15.81
2016-10-17T15:07:54.457Z,15.81
2016-10-17T15:09:04.773Z,15.81
2016-10-17T15:10:15.067Z,15.86
2016-10-17T15:11:24.756Z,15.77
2016-10-17T15:12:35.055Z,15.83
2016-10-17T15:13:45.051Z,15.81
2016-10-17T15:14:55.041Z,15.86
2016-10-17T15:16:04.735Z,15.78
2016-10-17T15:17:15.029Z,15.83
2016-10-17T15:18:25.367Z,15.8
2016-10-17T15:19:35.396Z,15.83
2016-10-17T15:20:45.729Z,15.78
2016-10-17T15:21:56.075Z,15.81
2016-10-17T15:23:05.775Z,15.92
2016-10-17T15:24:16.101Z,15.83
2016-10-17T15:25:26.130Z,15.8
2016-10-17T15:26:35.829Z,15.78
2016-10-17T15:27:45.850Z,15.86
2016-10-17T15:28:56.175Z,15.84
2016-10-17T15:30:06.482Z,15.75
2016-10-17T15:31:16.569Z,15.78
2016-10-17T15:32:26.571Z,15.86
2016-10-17T15:33:36.561Z,15.73
2016-10-17T15:34:46.886Z,15.7
2016-10-17T15:35:57.191Z,15.78
2016-10-17T15:37:07.505Z,15.73
2016-10-17T15:38:17.803Z,15.78
2016-10-17T15:39:28.133Z,15.73
2016-10-17T15:40:38.136Z,15.74